Time;durP1;ratioP1;P1;durP2;ratioP2;P2;SDS_P1;SDS_P2;PMS_P1;PMS_P2;Temp;Humidity;BMP_temperature;BMP_pressure;BME280_temperature;BME280_humidity;BME280_pressure;Samples;Min_cycle;Max_cycle;Signal;HPM_P1;HPM_P2
2021/06/30 00:00:26;;;;;;;7.30;6.80;;;;;;;21.48;100.00;95453.69;4992282;28;20588;-86
2021/06/30 00:02:53;;;;;;;7.73;6.93;;;;;;;21.33;100.00;95456.13;4992293;28;20197;-86
2021/06/30 00:05:21;;;;;;;7.57;6.97;;;;;;;21.30;100.00;95457.44;4992193;28;20687;-87
2021/06/30 00:07:48;;;;;;;7.40;6.53;;;;;;;21.32;100.00;95462.53;4992699;28;20283;-86
2021/06/30 00:10:16;;;;;;;9.97;7.57;;;;;;;21.40;100.00;95464.78;4991934;28;20239;-87
2021/06/30 00:12:44;;;;;;;7.77;6.97;;;;;;;21.49;100.00;95467.88;4992477;28;20231;-87
2021/06/30 00:15:17;;;;;;;10.00;7.87;;;;;;;21.51;100.00;95473.75;4992206;28;20580;-87
2021/06/30 00:17:46;;;;;;;7.63;6.93;;;;;;;21.55;100.00;95466.88;4992036;28;20311;-86
2021/06/30 00:20:14;;;;;;;6.90;6.30;;;;;;;21.43;100.00;95479.53;4991688;28;20200;-86
2021/06/30 00:22:42;;;;;;;7.53;6.93;;;;;;;21.37;100.00;95486.66;4992149;28;20258;-86
2021/06/30 00:25:11;;;;;;;7.80;7.10;;;;;;;21.24;100.00;95493.16;4992003;28;20257;-87
2021/06/30 00:27:39;;;;;;;8.33;7.53;;;;;;;21.30;100.00;95489.50;4991669;28;20247;-86
2021/06/30 00:30:08;;;;;;;7.17;6.60;;;;;;;21.22;100.00;95489.09;4991284;28;20269;-87
2021/06/30 00:32:35;;;;;;;8.10;7.30;;;;;;;21.27;100.00;95491.84;4992263;28;20196;-87
2021/06/30 00:35:05;;;;;;;8.10;7.40;;;;;;;21.21;100.00;95476.78;4991691;28;20205;-86
2021/06/30 00:37:32;;;;;;;8.33;6.90;;;;;;;21.36;100.00;95485.88;4991866;28;20708;-87
2021/06/30 00:40:00;;;;;;;8.70;7.87;;;;;;;21.25;100.00;95488.59;4991636;28;20200;-87
2021/06/30 00:42:30;;;;;;;8.00;7.30;;;;;;;21.19;100.00;95505.63;4991787;28;20208;-87
2021/06/30 00:44:57;;;;;;;8.10;7.40;;;;;;;21.28;100.00;95498.81;4991569;28;20211;-86
2021/06/30 00:47:25;;;;;;;8.20;7.53;;;;;;;21.13;100.00;95502.88;4991811;28;20196;-86
2021/06/30 00:49:53;;;;;;;8.37;6.57;;;;;;;20.88;100.00;95510.47;4991777;28;20913;-87
2021/06/30 00:52:21;;;;;;;10.10;7.80;;;;;;;20.78;100.00;95523.63;4991822;28;20580;-87
2021/06/30 00:54:49;;;;;;;7.83;7.03;;;;;;;20.74;100.00;95542.00;5019684;28;20238;-86
2021/06/30 00:57:18;;;;;;;8.40;7.70;;;;;;;20.88;100.00;95537.97;5030725;28;20234;-86
2021/06/30 00:59:46;;;;;;;8.97;8.07;;;;;;;20.95;100.00;95537.00;5030787;28;20198;-86
2021/06/30 01:02:13;;;;;;;7.93;7.03;;;;;;;20.92;100.00;95538.31;5030777;28;20230;-87
2021/06/30 01:04:41;;;;;;;7.50;6.90;;;;;;;21.08;100.00;95550.06;5030568;28;20703;-86
2021/06/30 01:07:08;;;;;;;8.40;7.67;;;;;;;21.00;100.00;95535.25;5030676;28;20295;-86
2021/06/30 01:09:37;;;;;;;8.17;7.30;;;;;;;21.03;100.00;95542.78;5030703;28;20582;-86
2021/06/30 01:12:05;;;;;;;8.70;7.73;;;;;;;20.95;100.00;95542.34;5030601;28;20244;-86
2021/06/30 01:14:36;;;;;;;8.00;7.30;;;;;;;21.03;100.00;95541.97;5030149;28;20199;-86
2021/06/30 01:17:05;;;;;;;9.23;7.57;;;;;;;21.03;100.00;95541.97;5030739;28;20206;-86
2021/06/30 01:19:34;;;;;;;8.17;7.47;;;;;;;20.92;100.00;95542.84;5030182;28;20762;-85
2021/06/30 01:22:02;;;;;;;7.83;7.13;;;;;;;20.90;100.00;95543.91;5030306;28;20198;-86
2021/06/30 01:24:31;;;;;;;10.47;7.83;;;;;;;20.88;100.00;95537.97;5030266;28;20207;-86
2021/06/30 01:26:58;;;;;;;9.77;7.80;;;;;;;20.97;100.00;95535.72;5030441;28;20251;-86
2021/06/30 01:29:26;;;;;;;8.23;7.53;;;;;;;20.88;100.00;95529.16;5030174;28;20743;-86
2021/06/30 01:31:53;;;;;;;8.60;7.80;;;;;;;20.96;100.00;95526.09;5030162;28;20248;-86
2021/06/30 01:34:20;;;;;;;7.30;6.80;;;;;;;20.82;100.00;95538.16;5029901;28;20209;-86
2021/06/30 01:36:49;;;;;;;8.07;7.10;;;;;;;20.86;100.00;95536.63;5030080;28;20286;-86
2021/06/30 01:39:17;;;;;;;8.40;7.70;;;;;;;20.76;100.00;95544.44;5029946;28;20207;-86
2021/06/30 01:41:46;;;;;;;7.40;6.80;;;;;;;20.83;100.00;95537.09;5029963;28;20230;-86
2021/06/30 01:44:14;;;;;;;7.50;6.80;;;;;;;20.90;100.00;95535.06;5029918;28;20243;-86
2021/06/30 01:46:42;;;;;;;9.53;7.67;;;;;;;20.78;100.00;95553.00;5029862;28;20285;-86
2021/06/30 01:49:10;;;;;;;8.93;7.30;;;;;;;20.74;100.00;95562.56;5029968;28;20207;-86
2021/06/30 01:51:38;;;;;;;8.27;7.47;;;;;;;20.65;100.00;95570.16;5029880;28;20716;-86
2021/06/30 01:54:09;;;;;;;8.80;6.97;;;;;;;20.48;100.00;95587.94;5029892;28;20618;-86
2021/06/30 01:56:37;;;;;;;8.70;7.27;;;;;;;20.34;100.00;95590.09;5029671;28;20242;-86
2021/06/30 01:59:07;;;;;;;7.67;7.00;;;;;;;20.44;100.00;95592.94;5029925;28;20203;-86
2021/06/30 02:01:34;;;;;;;9.10;6.60;;;;;;;20.54;100.00;95595.03;5029669;28;20287;-86
2021/06/30 02:04:02;;;;;;;8.23;7.53;;;;;;;20.62;100.00;95592.78;5029561;28;20199;-86
2021/06/30 02:06:36;;;;;;;7.90;7.20;;;;;;;20.69;100.00;95587.31;5029881;28;20656;-86
2021/06/30 02:09:05;;;;;;;9.73;7.30;;;;;;;20.65;100.00;95586.97;5029065;28;20217;-86
2021/06/30 02:11:32;;;;;;;8.53;7.73;;;;;;;20.63;100.00;95594.41;5029548;28;20241;-86
2021/06/30 02:14:00;;;;;;;8.77;6.83;;;;;;;20.45;100.00;95596.44;5029433;28;20292;-86
2021/06/30 02:16:29;;;;;;;8.17;7.47;;;;;;;20.43;100.00;95608.13;5029368;28;20719;-86
2021/06/30 02:18:56;;;;;;;8.40;7.60;;;;;;;20.37;100.00;95617.09;5029227;28;20228;-86
2021/06/30 02:21:23;;;;;;;8.53;7.20;;;;;;;20.47;100.00;95602.31;5029787;28;20210;-86
2021/06/30 02:23:50;;;;;;;8.07;7.30;;;;;;;20.34;100.00;95614.91;5029363;28;20213;-86
2021/06/30 02:26:17;;;;;;;8.30;7.50;;;;;;;20.25;100.00;95615.50;5029245;28;20255;-86
2021/06/30 02:28:45;;;;;;;7.90;7.00;;;;;;;20.13;100.00;95605.66;5029250;28;20679;-85
2021/06/30 02:31:12;;;;;;;7.77;7.10;;;;;;;20.15;100.00;95614.22;5029347;28;20282;-86
2021/06/30 02:33:41;;;;;;;8.33;7.53;;;;;;;20.36;100.00;95611.97;5028987;28;20241;-86
2021/06/30 02:36:08;;;;;;;7.37;6.77;;;;;;;20.36;100.00;95628.00;5029549;28;20238;-86
2021/06/30 02:38:36;;;;;;;9.10;8.30;;;;;;;20.14;100.00;95641.97;5029111;28;20262;-86
2021/06/30 02:41:03;;;;;;;9.73;8.80;;;;;;;20.28;100.00;95663.88;5029449;28;20226;-86
2021/06/30 02:43:30;;;;;;;7.63;6.90;;;;;;;20.13;100.00;95655.53;5029104;28;20198;-85
2021/06/30 02:45:58;;;;;;;10.23;6.73;;;;;;;20.06;100.00;95641.53;5029306;28;20574;-86
2021/06/30 02:48:25;;;;;;;6.93;6.40;;;;;;;20.11;100.00;95641.63;5028943;28;20195;-85
2021/06/30 02:50:54;;;;;;;8.83;7.67;;;;;;;20.01;100.00;95638.72;5029253;28;20203;-86
2021/06/30 02:53:21;;;;;;;9.80;7.60;;;;;;;20.09;100.00;95641.03;5028260;28;20293;-86
2021/06/30 02:55:49;;;;;;;8.93;8.03;;;;;;;20.30;100.00;95626.28;5028846;28;20231;-85
2021/06/30 02:58:16;;;;;;;11.97;7.73;;;;;;;20.31;100.00;95626.03;5028796;28;20275;-85
2021/06/30 03:00:43;;;;;;;8.53;7.63;;;;;;;20.38;100.00;95617.91;5028784;28;20276;-86
2021/06/30 03:03:11;;;;;;;9.33;8.53;;;;;;;20.26;100.00;95619.78;5029184;28;20305;-86
2021/06/30 03:05:38;;;;;;;9.80;7.43;;;;;;;20.23;100.00;95626.41;5029085;28;20656;-87
2021/06/30 03:08:07;;;;;;;10.10;7.50;;;;;;;20.21;100.00;95635.69;5029239;28;20230;-86
2021/06/30 03:10:34;;;;;;;7.80;7.03;;;;;;;20.15;100.00;95640.09;5027037;28;20199;-88
2021/06/30 03:13:02;;;;;;;7.90;7.20;;;;;;;20.09;100.00;95643.69;5029087;28;20198;-87
2021/06/30 03:15:29;;;;;;;8.83;8.00;;;;;;;19.93;100.00;95642.56;5028469;28;20690;-84
2021/06/30 03:17:58;;;;;;;10.20;7.83;;;;;;;19.95;100.00;95648.47;5028065;28;20263;-83
2021/06/30 03:20:25;;;;;;;16.57;8.03;;;;;;;20.01;100.00;95644.88;5028701;28;20278;-83
2021/06/30 03:22:52;;;;;;;8.50;7.80;;;;;;;20.09;100.00;95652.53;5027913;28;20202;-83
2021/06/30 03:25:21;;;;;;;8.37;7.67;;;;;;;20.04;100.00;95652.41;5027241;28;20259;-83
2021/06/30 03:27:49;;;;;;;9.87;8.37;;;;;;;20.10;100.00;95659.47;5027368;28;20195;-83
2021/06/30 03:30:16;;;;;;;10.83;8.60;;;;;;;20.04;100.00;95655.06;5026987;28;20285;-83
2021/06/30 03:32:43;;;;;;;9.03;8.17;;;;;;;20.22;100.00;95656.00;5027164;28;20199;-83
2021/06/30 03:35:11;;;;;;;9.67;8.70;;;;;;;20.18;100.00;95650.31;5027321;28;20211;-84
2021/06/30 03:37:39;;;;;;;9.60;8.40;;;;;;;20.25;100.00;95642.19;5027504;28;20258;-82
2021/06/30 03:40:07;;;;;;;8.93;8.13;;;;;;;20.21;100.00;95639.16;5027579;28;20323;-82
2021/06/30 03:42:36;;;;;;;9.03;8.13;;;;;;;20.21;100.00;95654.38;5027066;28;20225;-82
2021/06/30 03:45:04;;;;;;;9.83;8.83;;;;;;;20.18;100.00;95652.97;5026851;28;20203;-81
2021/06/30 03:47:32;;;;;;;8.67;7.43;;;;;;;20.20;100.00;95658.91;5027244;28;20242;-82
2021/06/30 03:49:59;;;;;;;9.77;8.87;;;;;;;20.04;100.00;95670.28;5027447;28;20199;-82
2021/06/30 03:52:27;;;;;;;9.37;8.47;;;;;;;20.02;100.00;95673.19;5027309;28;20267;-83
2021/06/30 03:54:54;;;;;;;9.17;8.30;;;;;;;19.97;100.00;95688.25;5027370;28;20831;-82
2021/06/30 03:57:22;;;;;;;9.90;8.90;;;;;;;19.99;100.00;95692.31;5027894;28;20265;-82
2021/06/30 03:59:50;;;;;;;9.43;8.63;;;;;;;19.99;100.00;95684.31;5028122;28;20260;-82
2021/06/30 04:02:18;;;;;;;11.80;9.37;;;;;;;20.11;100.00;95677.09;5027932;28;20199;-83
2021/06/30 04:04:45;;;;;;;11.43;9.73;;;;;;;20.24;100.00;95669.91;5030033;28;20195;-82
2021/06/30 04:07:13;;;;;;;11.93;10.67;;;;;;;20.15;100.00;95678.25;5031810;28;20613;-82
2021/06/30 04:09:40;;;;;;;12.70;11.37;;;;;;;20.15;100.00;95688.94;5031385;28;20259;-82
2021/06/30 04:12:08;;;;;;;12.97;11.70;;;;;;;20.32;100.00;95674.88;5031704;28;20275;-83
2021/06/30 04:14:35;;;;;;;12.27;11.07;;;;;;;20.44;100.00;95662.34;5031513;28;20604;-82
2021/06/30 04:17:04;;;;;;;11.53;10.63;;;;;;;20.43;100.00;95658.03;5031237;28;20560;-82
2021/06/30 04:19:32;;;;;;;12.20;9.70;;;;;;;20.47;100.00;95667.22;5030982;28;20238;-82
2021/06/30 04:21:59;;;;;;;10.27;9.23;;;;;;;20.55;100.00;95666.88;5031305;28;20290;-83
2021/06/30 04:24:27;;;;;;;10.40;9.50;;;;;;;20.42;100.00;95689.25;5031138;28;20238;-82
2021/06/30 04:26:54;;;;;;;9.13;8.33;;;;;;;20.41;100.00;95692.19;5031335;28;20222;-82
2021/06/30 04:29:22;;;;;;;10.13;9.23;;;;;;;20.41;100.00;95692.97;5031050;28;20259;-83
2021/06/30 04:31:50;;;;;;;9.53;8.70;;;;;;;20.50;100.00;95688.13;5031546;28;20267;-82
2021/06/30 04:34:18;;;;;;;12.50;9.33;;;;;;;20.47;100.00;95685.06;5031260;28;20198;-83
2021/06/30 04:36:46;;;;;;;9.87;9.07;;;;;;;20.48;100.00;95676.84;5031109;28;20230;-83
2021/06/30 04:39:15;;;;;;;10.70;9.73;;;;;;;20.63;100.00;95679.03;5030564;28;20307;-83
2021/06/30 04:41:42;;;;;;;11.67;10.33;;;;;;;20.57;100.00;95674.63;5030997;28;20242;-83
2021/06/30 04:44:10;;;;;;;13.27;10.20;;;;;;;20.62;100.00;95682.75;5030864;28;20289;-82
2021/06/30 04:46:37;;;;;;;17.83;11.10;;;;;;;20.80;100.00;95679.13;5030935;28;20203;-82
2021/06/30 04:49:04;;;;;;;20.10;9.73;;;;;;;20.80;100.00;95668.44;5030804;28;20198;-82
2021/06/30 04:51:33;;;;;;;10.13;9.17;;;;;;;20.93;100.00;95680.72;5030667;28;20641;-83
2021/06/30 04:54:01;;;;;;;11.47;10.57;;;;;;;21.03;100.00;95686.25;5030515;28;20238;-83
2021/06/30 04:56:29;;;;;;;12.40;11.40;;;;;;;21.05;100.00;95682.25;5030739;28;20195;-83
2021/06/30 04:58:57;;;;;;;11.43;10.43;;;;;;;21.14;100.00;95683.50;5030854;28;20222;-83
2021/06/30 05:01:24;;;;;;;11.67;10.70;;;;;;;21.21;100.00;95682.56;5030494;28;20293;-82
2021/06/30 05:03:51;;;;;;;11.73;10.73;;;;;;;21.23;100.00;95694.63;5030524;28;20251;-82
2021/06/30 05:06:19;;;;;;;11.73;10.83;;;;;;;21.25;100.00;95705.09;5030645;28;20203;-83
2021/06/30 05:08:48;;;;;;;11.23;10.17;;;;;;;21.30;100.00;95711.34;5030477;28;20198;-83
2021/06/30 05:11:15;;;;;;;10.87;10.07;;;;;;;21.43;100.00;95722.81;5030360;28;20256;-82
2021/06/30 05:13:42;;;;;;;10.90;10.00;;;;;;;21.56;100.00;95723.31;5030390;28;20210;-83
2021/06/30 05:16:10;;;;;;;9.53;8.60;;;;;;;21.66;100.00;95719.22;5030118;28;20202;-83
2021/06/30 05:18:37;;;;;;;11.23;10.30;;;;;;;21.76;100.00;95720.19;5030264;28;20258;-83
2021/06/30 05:21:04;;;;;;;10.67;8.90;;;;;;;21.89;100.00;95711.03;5030159;28;20228;-83
2021/06/30 05:23:32;;;;;;;9.90;9.10;;;;;;;22.00;100.00;95715.50;5030392;28;20199;-83
2021/06/30 05:26:02;;;;;;;10.07;8.53;;;;;;;22.10;100.00;95706.81;5030277;28;20687;-82
2021/06/30 05:28:29;;;;;;;12.43;9.27;;;;;;;22.20;100.00;95698.13;5030886;28;20199;-83
2021/06/30 05:30:57;;;;;;;10.90;9.90;;;;;;;22.41;100.00;95699.22;5030296;28;20313;-82
2021/06/30 05:33:25;;;;;;;11.63;10.63;;;;;;;22.54;100.00;95693.53;5030257;28;20693;-83
2021/06/30 05:35:52;;;;;;;11.13;10.30;;;;;;;22.71;100.00;95686.25;5030001;28;20255;-83
2021/06/30 05:38:19;;;;;;;10.80;9.77;;;;;;;22.96;100.00;95668.88;5030132;28;20223;-83
2021/06/30 05:40:47;;;;;;;9.97;9.13;;;;;;;23.10;100.00;95654.00;5029927;28;20220;-83
2021/06/30 05:43:16;;;;;;;10.37;9.47;;;;;;;23.24;100.00;95643.69;5030472;28;20630;-83
2021/06/30 05:45:43;;;;;;;10.03;9.00;;;;;;;23.37;100.00;95635.25;5030130;28;20206;-83
2021/06/30 05:48:11;;;;;;;9.13;8.43;;;;;;;23.54;100.00;95629.75;5030088;28;20255;-83
2021/06/30 05:50:38;;;;;;;9.53;8.60;;;;;;;23.78;100.00;95630.25;5029577;28;20256;-83
2021/06/30 05:53:05;;;;;;;10.53;9.63;;;;;;;24.00;100.00;95618.59;5029836;28;20335;-82
2021/06/30 05:55:33;;;;;;;10.40;9.37;;;;;;;24.16;100.00;95605.00;5028256;28;20238;-82
2021/06/30 05:58:00;;;;;;;10.77;9.77;;;;;;;24.39;100.00;95605.66;5028838;28;20226;-82
2021/06/30 06:00:29;;;;;;;12.77;10.60;;;;;;;24.52;100.00;95621.28;5029526;28;20291;-82
2021/06/30 06:02:56;;;;;;;10.73;9.83;;;;;;;24.59;100.00;95616.53;5029932;28;20248;-82
2021/06/30 06:05:24;;;;;;;10.13;9.20;;;;;;;24.58;100.00;95616.75;5029857;28;20594;-82
2021/06/30 06:07:51;;;;;;;9.27;8.47;;;;;;;24.74;100.00;95617.63;5029690;28;20198;-82
2021/06/30 06:10:18;;;;;;;10.30;9.33;;;;;;;25.02;100.00;95613.69;5029498;28;20203;-82
2021/06/30 06:12:45;;;;;;;9.87;8.87;;;;;;;25.05;100.00;95627.41;5029783;28;20206;-82
2021/06/30 06:15:13;;;;;;;10.00;8.97;;;;;;;25.22;100.00;95631.78;5029401;28;20198;-83
2021/06/30 06:17:42;;;;;;;12.20;10.77;;;;;;;25.38;100.00;95638.75;5029637;28;20191;-83
2021/06/30 06:20:11;;;;;;;9.83;9.03;;;;;;;25.36;100.00;95638.25;5029255;28;20199;-82
2021/06/30 06:22:39;;;;;;;10.17;8.93;;;;;;;25.23;100.00;95653.00;5029572;28;20220;-83
2021/06/30 06:25:08;;;;;;;9.70;8.80;;;;;;;25.30;100.00;95645.50;5029226;28;20239;-83
2021/06/30 06:27:38;;;;;;;9.30;8.37;;;;;;;25.68;100.00;95627.22;5028558;28;20230;-83
2021/06/30 06:30:07;;;;;;;10.07;9.07;;;;;;;25.90;100.00;95645.00;5029394;28;20281;-83
2021/06/30 06:32:34;;;;;;;10.18;9.27;;;;;;;26.03;100.00;95641.75;5029601;28;20281;-83
2021/06/30 06:35:03;;;;;;;10.20;9.17;;;;;;;26.07;100.00;95653.59;5029210;28;20289;-82
2021/06/30 06:37:31;;;;;;;9.83;8.97;;;;;;;26.33;100.00;95670.53;5029523;28;20275;-83
2021/06/30 06:39:59;;;;;;;10.02;9.02;;;;;;;26.29;100.00;95675.66;5028851;28;20748;-83
2021/06/30 06:42:26;;;;;;;10.37;9.37;;;;;;;26.28;100.00;95700.97;5029411;28;20591;-83
2021/06/30 06:44:53;;;;;;;9.25;8.45;;;;;;;26.17;100.00;95736.25;5029033;28;20254;-83
2021/06/30 06:47:21;;;;;;;8.93;8.23;;;;;;;26.32;100.00;95729.00;5028804;28;20260;-83
2021/06/30 06:49:48;;;;;;;8.98;8.13;;;;;;;26.43;100.00;95755.91;5028692;28;20199;-82
2021/06/30 06:52:17;;;;;;;9.80;8.90;;;;;;;26.39;100.00;95760.22;5029178;28;20187;-83
2021/06/30 06:54:44;;;;;;;8.90;8.20;;;;;;;26.67;100.00;95783.94;5028776;28;20626;-83
2021/06/30 06:57:13;;;;;;;9.02;8.13;;;;;;;26.73;100.00;95777.44;5029058;28;20209;-83
2021/06/30 06:59:40;;;;;;;9.02;8.23;;;;;;;26.71;100.00;95793.09;5028520;28;20227;-82
2021/06/30 07:02:08;;;;;;;9.27;8.35;;;;;;;26.60;100.00;95775.31;5028895;28;20640;-83
2021/06/30 07:04:35;;;;;;;10.15;8.00;;;;;;;27.07;100.00;95786.81;5028864;28;20234;-82
2021/06/30 07:07:03;;;;;;;8.45;7.78;;;;;;;27.00;100.00;95797.88;5028974;28;20252;-83
2021/06/30 07:09:32;;;;;;;11.32;8.27;;;;;;;26.99;100.00;95829.44;5029001;28;20195;-83
2021/06/30 07:11:59;;;;;;;9.23;8.48;;;;;;;27.44;100.00;95797.22;5028657;28;20242;-83
2021/06/30 07:14:26;;;;;;;8.88;8.18;;;;;;;27.52;100.00;95830.91;5028927;28;20259;-83
2021/06/30 07:16:54;;;;;;;8.93;8.02;;;;;;;27.40;100.00;95847.41;5028832;28;20201;-83
2021/06/30 07:19:21;;;;;;;9.27;8.40;;;;;;;27.20;100.00;95876.09;5028892;28;20227;-82
2021/06/30 07:21:48;;;;;;;8.63;7.85;;;;;;;27.54;100.00;95853.00;5028489;28;20242;-83
2021/06/30 07:24:16;;;;;;;10.93;8.27;;;;;;;27.72;100.00;95844.31;5028817;28;20199;-83
2021/06/30 07:26:44;;;;;;;8.98;8.27;;;;;;;27.53;100.00;95890.00;5028995;28;20209;-83
2021/06/30 07:29:12;;;;;;;9.32;8.32;;;;;;;27.82;100.00;95870.50;5028523;28;20234;-83
2021/06/30 07:31:39;;;;;;;9.73;8.15;;;;;;;27.87;100.00;95881.25;5028373;28;20194;-83
2021/06/30 07:34:06;;;;;;;8.80;7.93;;;;;;;27.57;100.00;95888.34;5028441;28;20315;-83
2021/06/30 07:36:34;;;;;;;9.75;8.85;;;;;;;27.82;100.00;95881.28;5028508;28;20195;-83
2021/06/30 07:39:01;;;;;;;12.15;9.73;;;;;;;28.38;100.00;95843.13;5030609;28;20226;-84
2021/06/30 07:41:29;;;;;;;9.43;8.63;;;;;;;28.59;100.00;95873.53;5031656;28;20203;-84
2021/06/30 07:43:58;;;;;;;8.88;8.00;;;;;;;28.61;100.00;95937.06;5031806;28;20735;-83
2021/06/30 07:46:25;;;;;;;9.73;8.77;;;;;;;28.26;100.00;95948.84;5032183;28;20207;-83
2021/06/30 07:48:52;;;;;;;9.10;8.18;;;;;;;28.43;100.00;95918.78;5031489;28;20191;-83
2021/06/30 07:51:20;;;;;;;11.07;8.25;;;;;;;28.77;100.00;95909.88;5031774;28;20238;-83
2021/06/30 07:53:47;;;;;;;9.10;8.30;;;;;;;28.97;100.00;95954.91;5031418;28;20288;-84
2021/06/30 07:56:14;;;;;;;9.27;8.38;;;;;;;28.90;100.00;95966.84;5031817;28;20190;-84
2021/06/30 07:58:42;;;;;;;9.05;8.25;;;;;;;28.98;100.00;96005.22;5031273;28;20258;-84
2021/06/30 08:01:11;;;;;;;8.88;8.15;;;;;;;28.80;100.00;96006.69;5031605;28;20203;-84
2021/06/30 08:03:42;;;;;;;8.50;7.65;;;;;;;29.03;100.00;96000.59;5031489;28;20255;-83
2021/06/30 08:06:09;;;;;;;9.43;8.63;;;;;;;28.94;100.00;96015.78;5031308;28;20226;-84
2021/06/30 08:08:36;;;;;;;9.35;8.15;;;;;;;28.81;100.00;96021.81;5031491;28;20281;-84
2021/06/30 08:11:04;;;;;;;10.27;8.63;;;;;;;29.04;100.00;95996.81;5031387;28;20211;-83
2021/06/30 08:13:31;;;;;;;8.50;7.80;;;;;;;28.72;100.00;96026.22;5031343;28;20202;-84
2021/06/30 08:15:58;;;;;;;8.00;7.30;;;;;;;28.87;100.00;96012.59;5031342;28;20636;-83
2021/06/30 08:18:27;;;;;;;8.25;7.50;;;;;;;28.89;100.00;96027.47;5031346;28;20669;-83
2021/06/30 08:20:54;;;;;;;9.45;7.68;;;;;;;29.03;100.00;96054.72;5031280;28;20766;-84
2021/06/30 08:23:22;;;;;;;7.90;7.20;;;;;;;29.02;100.00;96042.25;5031136;28;20742;-84
2021/06/30 08:25:49;;;;;;;7.97;7.20;;;;;;;29.12;100.00;96047.59;5031098;28;20206;-84
2021/06/30 08:28:19;;;;;;;8.68;7.47;;;;;;;29.17;100.00;96060.31;5031590;28;20279;-84
2021/06/30 08:30:46;;;;;;;8.90;8.10;;;;;;;29.00;100.00;96068.00;5031297;28;20288;-84
2021/06/30 08:33:14;;;;;;;7.97;7.13;;;;;;;29.18;100.00;96040.25;5031534;28;20195;-84
2021/06/30 08:35:42;;;;;;;7.95;7.03;;;;;;;29.36;100.00;96063.94;5030859;28;20624;-84
2021/06/30 08:38:10;;;;;;;7.75;7.05;;;;;;;29.20;100.00;96034.56;5031371;28;20582;-84
2021/06/30 08:40:37;;;;;;;8.10;7.32;;;;;;;29.40;100.00;96045.22;5030796;28;20238;-84
2021/06/30 08:43:05;;;;;;;7.53;6.95;;;;;;;29.34;100.00;96065.31;5031067;28;20289;-84
2021/06/30 08:45:33;;;;;;;7.63;6.85;;;;;;;29.45;100.00;96082.28;5030983;28;20203;-83
2021/06/30 08:48:02;;;;;;;7.25;6.57;;;;;;;29.37;100.00;96084.50;5030905;28;20294;-85
2021/06/30 08:50:30;;;;;;;7.88;7.18;;;;;;;29.03;100.00;96124.25;5030097;28;20243;-84
2021/06/30 08:53:01;;;;;;;7.97;6.75;;;;;;;29.34;100.00;96103.22;5030981;28;20195;-84
2021/06/30 08:55:28;;;;;;;7.35;6.75;;;;;;;29.45;100.00;96115.59;5030554;28;20298;-84
2021/06/30 08:57:56;;;;;;;8.35;7.22;;;;;;;29.69;100.00;96066.13;5030682;28;20239;-84
2021/06/30 09:00:23;;;;;;;8.05;7.03;;;;;;;29.55;100.00;96099.25;5030474;28;20270;-85
2021/06/30 09:02:56;;;;;;;7.60;7.00;;;;;;;29.61;100.00;96108.16;5030797;28;20289;-85
2021/06/30 09:08:11;;;;;;;8.10;7.30;;;;;;;29.98;100.00;96056.06;5030688;28;20708;-85
2021/06/30 09:10:40;;;;;;;8.27;7.43;;;;;;;30.07;100.00;96084.16;5030530;28;20183;-84
2021/06/30 09:13:19;;;;;;;7.55;6.72;;;;;;;30.17;100.00;96106.81;5030616;28;20851;-84
2021/06/30 09:15:46;;;;;;;7.70;7.03;;;;;;;30.25;100.00;96119.78;5030180;28;20187;-84
2021/06/30 09:18:24;;;;;;;9.52;7.03;;;;;;;30.38;100.00;96120.97;5030581;28;20206;-84
2021/06/30 09:20:52;;;;;;;8.20;7.50;;;;;;;30.41;100.00;96145.63;5030583;28;20657;-85
2021/06/30 09:23:20;;;;;;;8.85;7.35;;;;;;;30.40;100.00;96135.88;5030484;28;20199;-84
2021/06/30 09:25:48;;;;;;;8.10;7.22;;;;;;;30.50;100.00;96102.41;5030222;28;20205;-85
2021/06/30 09:28:18;;;;;;;12.00;8.20;;;;;;;30.10;100.00;96126.13;5030192;28;20229;-84
2021/06/30 09:31:03;;;;;;;7.78;7.18;;;;;;;30.33;100.00;96108.31;5030525;28;20203;-84
2021/06/30 09:33:47;;;;;;;8.85;7.85;;;;;;;30.49;100.00;96141.47;5030161;28;20230;-84
2021/06/30 09:36:15;;;;;;;8.30;7.53;;;;;;;30.44;100.00;96126.06;5030439;28;20353;-85
2021/06/30 09:38:44;;;;;;;10.60;7.55;;;;;;;30.53;100.00;96121.63;5029940;28;20671;-84
2021/06/30 09:41:18;;;;;;;7.57;7.00;;;;;;;30.79;100.00;96096.91;5030558;28;20199;-85
2021/06/30 09:43:46;;;;;;;8.55;7.70;;;;;;;30.32;100.00;96112.13;5030120;28;20563;-84
2021/06/30 09:46:21;;;;;;;8.73;7.47;;;;;;;30.45;100.00;96138.53;5030341;28;20584;-84
2021/06/30 09:49:00;;;;;;;8.25;7.50;;;;;;;30.61;100.00;96119.38;5029848;28;20198;-84
2021/06/30 09:51:28;;;;;;;8.15;7.45;;;;;;;30.82;100.00;96131.59;5029955;28;20186;-85
2021/06/30 09:54:05;;;;;;;8.23;7.43;;;;;;;30.95;100.00;96130.09;5029337;28;20283;-85
2021/06/30 09:56:36;;;;;;;8.93;8.23;;;;;;;30.82;100.00;96160.66;5030067;28;20276;-84
2021/06/30 09:59:21;;;;;;;8.45;7.72;;;;;;;30.74;100.00;96119.47;5029633;28;20294;-84
2021/06/30 10:01:57;;;;;;;9.23;8.52;;;;;;;30.56;100.00;96142.75;5028712;28;20187;-84
2021/06/30 10:04:33;;;;;;;8.75;8.05;;;;;;;30.83;100.00;96124.25;5029410;28;20194;-85
2021/06/30 10:07:03;;;;;;;9.60;8.77;;;;;;;30.81;100.00;96134.63;5030104;28;20605;-84
2021/06/30 10:09:32;;;;;;;8.60;8.00;;;;;;;30.95;100.00;96106.47;5030142;28;20614;-85
2021/06/30 10:12:02;;;;;;;10.30;9.25;;;;;;;31.06;100.00;96117.19;5029824;28;20278;-84
2021/06/30 10:14:30;;;;;;;8.48;7.78;;;;;;;31.32;100.00;96120.38;5029840;28;20248;-84
2021/06/30 10:17:00;;;;;;;7.90;7.30;;;;;;;31.41;100.00;96122.09;5029861;28;20237;-85
2021/06/30 10:19:28;;;;;;;9.65;8.75;;;;;;;30.99;100.00;96131.13;5029491;28;20226;-85
2021/06/30 10:21:57;;;;;;;8.60;7.90;;;;;;;31.01;100.00;96156.88;5029630;28;20634;-84
2021/06/30 10:24:24;;;;;;;9.10;8.40;;;;;;;31.24;100.00;96111.75;5029410;28;20226;-84
2021/06/30 10:26:54;;;;;;;12.13;9.55;;;;;;;31.07;100.00;96119.63;5029671;28;20230;-85
2021/06/30 10:29:25;;;;;;;9.55;8.65;;;;;;;31.39;100.00;96090.94;5029326;28;20668;-85
2021/06/30 10:31:55;;;;;;;10.18;8.98;;;;;;;31.07;100.00;96157.63;5029421;28;20198;-85
2021/06/30 10:34:36;;;;;;;11.88;9.88;;;;;;;31.17;100.00;96118.66;5029062;28;20245;-85
2021/06/30 10:37:05;;;;;;;10.18;9.02;;;;;;;31.24;100.00;96168.78;5029689;28;20304;-84
2021/06/30 10:39:44;;;;;;;10.20;9.13;;;;;;;31.36;100.00;96114.06;5029114;28;20583;-84
2021/06/30 10:42:38;;;;;;;9.43;8.68;;;;;;;31.54;100.00;96131.41;5028987;28;20199;-85
2021/06/30 10:45:17;;;;;;;10.00;9.20;;;;;;;31.56;100.00;96148.25;5010788;28;20205;-85
2021/06/30 10:47:47;;;;;;;11.30;9.75;;;;;;;31.85;100.00;96123.56;5029177;28;20243;-85
2021/06/30 10:50:31;;;;;;;10.75;9.68;;;;;;;31.84;100.00;96132.84;5029249;28;20195;-84
2021/06/30 10:53:35;;;;;;;9.98;9.15;;;;;;;31.79;100.00;96127.47;5029285;28;20618;-85
2021/06/30 10:56:06;;;;;;;10.38;9.38;;;;;;;31.76;100.00;96130.78;5028888;28;20259;-84
2021/06/30 10:58:35;;;;;;;9.20;8.50;;;;;;;32.04;100.00;96141.75;5029265;28;20621;-85
2021/06/30 11:01:13;;;;;;;12.15;10.13;;;;;;;32.19;100.00;96153.19;5029052;28;20248;-85
2021/06/30 11:03:48;;;;;;;10.68;9.63;;;;;;;32.15;100.00;96140.50;5028805;28;20281;-85
2021/06/30 11:06:27;;;;;;;9.27;8.57;;;;;;;31.47;100.00;96196.97;5029153;28;20273;-85
2021/06/30 11:08:57;;;;;;;10.32;9.57;;;;;;;31.55;100.00;96170.25;5028838;28;20183;-85
2021/06/30 11:12:00;;;;;;;11.23;9.73;;;;;;;31.73;100.00;96129.50;5029184;28;20642;-85
2021/06/30 11:14:44;;;;;;;10.48;9.45;;;;;;;31.83;100.00;96171.97;5031794;28;20704;-85
2021/06/30 11:17:11;;;;;;;9.80;9.00;;;;;;;31.60;100.00;96184.56;5032420;28;20709;-84
2021/06/30 11:19:46;;;;;;;11.35;9.40;;;;;;;31.80;100.00;96134.53;5032150;28;20222;-84
2021/06/30 11:22:25;;;;;;;12.23;10.07;;;;;;;31.90;100.00;96134.41;5032134;28;20236;-84
2021/06/30 11:24:53;;;;;;;9.73;8.80;;;;;;;32.18;100.00;96134.47;5032392;28;20198;-85
2021/06/30 11:27:43;;;;;;;9.48;8.63;;;;;;;31.48;100.00;96178.78;5032237;28;20198;-84
2021/06/30 11:30:14;;;;;;;11.38;10.35;;;;;;;31.77;100.00;96140.56;5032029;28;20187;-85
2021/06/30 11:32:46;;;;;;;9.73;8.95;;;;;;;31.74;100.00;96152.84;5032247;28;20220;-84